Time;durP1;ratioP1;P1;durP2;ratioP2;P2;SDS_P1;SDS_P2;PMS_P1;PMS_P2;Temp;Humidity;BMP_temperature;BMP_pressure;BME280_temperature;BME280_humidity;BME280_pressure;Samples;Min_cycle;Max_cycle;Signal;HPM_P1;HPM_P2
2024/03/17 00:02:51;;;;;;;3.55;1.90;;;;;;;;;;10201898;28;20039;-74
2024/03/17 00:07:52;;;;;;;5.68;2.00;;;;;;;;;;10202098;28;20044;-74
2024/03/17 00:12:57;;;;;;;5.05;2.22;;;;;;;;;;10200442;28;20039;-76
2024/03/17 00:17:59;;;;;;;2.67;1.35;;;;;;;;;;10203442;28;20039;-77
2024/03/17 00:23:01;;;;;;;4.28;1.88;;;;;;;;;;10198418;28;20493;-76
2024/03/17 00:28:05;;;;;;;4.80;2.17;;;;;;;;;;10198260;28;20544;-76
2024/03/17 00:33:10;;;;;;;4.93;2.08;;;;;;;;;;10196795;28;20043;-76
2024/03/17 00:38:13;;;;;;;4.17;1.73;;;;;;;;;;10196339;28;20051;-76
2024/03/17 00:43:16;;;;;;;3.92;1.70;;;;;;;;;;10197120;28;20039;-76
2024/03/17 00:48:17;;;;;;;4.25;2.22;;;;;;;;;;10199521;28;20055;-75
2024/03/17 00:53:19;;;;;;;4.85;2.10;;;;;;;;;;10183932;28;20777;-75
2024/03/17 00:58:22;;;;;;;4.30;2.13;;;;;;;;;;10213234;28;20078;-76
2024/03/17 01:03:27;;;;;;;4.68;2.20;;;;;;;;;;10196469;28;20406;-77
2024/03/17 01:08:29;;;;;;;4.90;2.35;;;;;;;;;;10198058;28;20063;-76
2024/03/17 01:13:34;;;;;;;4.82;2.15;;;;;;;;;;10178431;28;20524;-75
2024/03/17 01:18:37;;;;;;;4.30;2.15;;;;;;;;;;10191528;28;20058;-76
2024/03/17 01:23:38;;;;;;;5.15;2.25;;;;;;;;;;10182020;28;20051;-75
2024/03/17 01:28:44;;;;;;;7.32;2.28;;;;;;;;;;10194393;28;20477;-76
2024/03/17 01:33:47;;;;;;;5.93;2.35;;;;;;;;;;10193876;28;20127;-77
2024/03/17 01:38:51;;;;;;;6.35;2.60;;;;;;;;;;10197735;28;20047;-77
2024/03/17 01:43:54;;;;;;;11.27;3.03;;;;;;;;;;10187496;28;20492;-75
2024/03/17 01:48:57;;;;;;;6.13;2.50;;;;;;;;;;10205762;28;20047;-77
2024/03/17 01:53:59;;;;;;;9.63;2.70;;;;;;;;;;10203939;28;20522;-76
2024/03/17 01:59:04;;;;;;;4.97;2.72;;;;;;;;;;10207057;28;20444;-75
2024/03/17 02:04:07;;;;;;;6.22;2.95;;;;;;;;;;10201615;28;20110;-77
2024/03/17 02:09:09;;;;;;;5.88;2.60;;;;;;;;;;10182417;28;20040;-75
2024/03/17 02:14:14;;;;;;;4.82;2.60;;;;;;;;;;10203315;28;22233;-76
2024/03/17 02:19:16;;;;;;;9.43;2.90;;;;;;;;;;10199103;28;20047;-75
2024/03/17 02:24:20;;;;;;;7.00;2.83;;;;;;;;;;10198508;28;20039;-75
2024/03/17 02:29:23;;;;;;;6.13;2.58;;;;;;;;;;10202597;28;20073;-75
2024/03/17 02:34:25;;;;;;;6.25;2.83;;;;;;;;;;10188086;28;20035;-74
2024/03/17 02:39:38;;;;;;;5.55;2.70;;;;;;;;;;10200986;28;20452;-75
2024/03/17 02:44:40;;;;;;;8.45;3.17;;;;;;;;;;10201558;28;20048;-76
2024/03/17 02:49:43;;;;;;;5.63;2.78;;;;;;;;;;10208618;28;20070;-75
2024/03/17 02:54:46;;;;;;;5.55;2.60;;;;;;;;;;10204073;28;20516;-78
2024/03/17 02:59:48;;;;;;;6.30;2.90;;;;;;;;;;10203908;28;20054;-74
2024/03/17 03:04:50;;;;;;;7.10;2.88;;;;;;;;;;10200715;28;20035;-74
2024/03/17 03:09:53;;;;;;;7.00;3.10;;;;;;;;;;10209556;28;20054;-74
2024/03/17 03:14:56;;;;;;;;;;;;;;;;;;10198117;28;20031;-76
2024/03/17 03:19:57;;;;;;;6.80;3.03;;;;;;;;;;10197430;28;19930;-74
2024/03/17 03:25:02;;;;;;;5.45;2.42;;;;;;;;;;10200152;28;20106;-75
2024/03/17 03:30:06;;;;;;;6.32;2.60;;;;;;;;;;10192868;28;20047;-74
2024/03/17 03:35:09;;;;;;;;;;;;;;;;;;10198978;28;20047;-76
2024/03/17 03:40:16;;;;;;;5.93;2.42;;;;;;;;;;10204450;28;19995;-76
2024/03/17 03:45:18;;;;;;;5.60;2.88;;;;;;;;;;10187960;28;20094;-75
2024/03/17 03:50:21;;;;;;;6.95;2.80;;;;;;;;;;10206549;28;20055;-77
2024/03/17 03:55:24;;;;;;;6.10;2.77;;;;;;;;;;10191971;28;20425;-76
2024/03/17 04:00:31;;;;;;;5.68;2.55;;;;;;;;;;10209294;28;20102;-77
2024/03/17 04:05:34;;;;;;;8.73;3.10;;;;;;;;;;10185196;28;20077;-75
2024/03/17 04:10:38;;;;;;;6.67;3.10;;;;;;;;;;10173909;28;20039;-76
2024/03/17 04:15:40;;;;;;;5.22;2.47;;;;;;;;;;10183533;28;20444;-76
2024/03/17 04:20:42;;;;;;;5.60;2.63;;;;;;;;;;10197651;28;20047;-76
2024/03/17 04:25:45;;;;;;;7.50;2.63;;;;;;;;;;10193052;28;20051;-75
2024/03/17 04:30:47;;;;;;;7.63;3.27;;;;;;;;;;10198163;28;20600;-75
2024/03/17 04:35:49;;;;;;;6.28;2.78;;;;;;;;;;10206636;28;20047;-76
2024/03/17 04:40:59;;;;;;;5.95;2.90;;;;;;;;;;10196252;28;20055;-75
2024/03/17 04:46:03;;;;;;;7.95;3.42;;;;;;;;;;10195484;28;20512;-75
2024/03/17 04:51:05;;;;;;;6.97;3.35;;;;;;;;;;10201928;28;20047;-75
2024/03/17 04:56:09;;;;;;;7.15;3.15;;;;;;;;;;10196137;28;20035;-75
2024/03/17 05:01:12;;;;;;;6.75;3.20;;;;;;;;;;10182779;28;20051;-75
2024/03/17 05:06:14;;;;;;;6.90;3.00;;;;;;;;;;10198092;28;20051;-74
2024/03/17 05:11:19;;;;;;;4.80;2.53;;;;;;;;;;10193949;28;20114;-74
2024/03/17 05:16:23;;;;;;;7.88;3.22;;;;;;;;;;10193800;28;20118;-75
2024/03/17 05:21:29;;;;;;;6.30;2.78;;;;;;;;;;10195045;28;20074;-73
2024/03/17 05:26:34;;;;;;;6.70;2.50;;;;;;;;;;10207043;28;20493;-74
2024/03/17 05:31:38;;;;;;;5.82;2.72;;;;;;;;;;10208908;28;20051;-75
2024/03/17 05:36:40;;;;;;;4.45;2.30;;;;;;;;;;10196652;29;20044;-76
2024/03/17 05:41:44;;;;;;;4.22;2.25;;;;;;;;;;10197118;28;20047;-74
2024/03/17 05:46:46;;;;;;;5.93;2.78;;;;;;;;;;10195424;28;20118;-75
2024/03/17 05:51:48;;;;;;;6.07;2.75;;;;;;;;;;10203629;28;20572;-75
2024/03/17 05:56:53;;;;;;;5.05;2.55;;;;;;;;;;10195528;28;20067;-75
2024/03/17 06:01:56;;;;;;;5.25;2.10;;;;;;;;;;10206945;28;20052;-76
2024/03/17 06:07:00;;;;;;;5.27;2.20;;;;;;;;;;10190948;28;20051;-75
2024/03/17 06:12:04;;;;;;;4.80;1.58;;;;;;;;;;10179080;28;20044;-75
2024/03/17 06:17:09;;;;;;;4.13;2.35;;;;;;;;;;10207408;28;20032;-76
2024/03/17 06:22:11;;;;;;;7.85;2.13;;;;;;;;;;10190838;28;20043;-74
2024/03/17 06:27:14;;;;;;;3.75;1.80;;;;;;;;;;10197614;28;20043;-74
2024/03/17 06:32:17;;;;;;;5.38;2.50;;;;;;;;;;10201051;28;20051;-74
2024/03/17 06:37:19;;;;;;;8.52;2.83;;;;;;;;;;10202820;28;20098;-74
2024/03/17 06:42:23;;;;;;;5.75;2.10;;;;;;;;;;10187374;28;20050;-74
2024/03/17 06:47:25;;;;;;;4.88;1.88;;;;;;;;;;10190962;28;20046;-74
2024/03/17 06:52:28;;;;;;;2.15;1.23;;;;;;;;;;10203024;28;20055;-75
2024/03/17 06:57:33;;;;;;;4.75;1.60;;;;;;;;;;10212271;28;20052;-76
2024/03/17 07:02:35;;;;;;;6.07;2.53;;;;;;;;;;10200105;28;20043;-74
2024/03/17 07:07:37;;;;;;;2.72;1.27;;;;;;;;;;10201057;28;20488;-74
2024/03/17 07:12:41;;;;;;;4.72;2.47;;;;;;;;;;10200383;28;20043;-74
2024/03/17 07:17:43;;;;;;;3.72;2.00;;;;;;;;;;10185801;28;20083;-74
2024/03/17 07:22:45;;;;;;;5.63;2.40;;;;;;;;;;10199670;28;20047;-76
2024/03/17 07:27:49;;;;;;;2.20;1.55;;;;;;;;;;10197468;28;20054;-76
2024/03/17 07:32:51;;;;;;;3.85;2.17;;;;;;;;;;10199245;28;20117;-75
2024/03/17 07:37:53;;;;;;;3.88;2.28;;;;;;;;;;10199553;28;20047;-75
2024/03/17 07:42:56;;;;;;;2.88;2.00;;;;;;;;;;10196906;28;20094;-76
2024/03/17 07:47:58;;;;;;;4.60;1.60;;;;;;;;;;10196024;28;20127;-74
2024/03/17 07:53:02;;;;;;;4.07;2.20;;;;;;;;;;10200761;28;20111;-76
2024/03/17 07:58:04;;;;;;;;;;;;;;;;;;10185307;28;20122;-74
2024/03/17 08:03:11;;;;;;;7.30;2.47;;;;;;;;;;10197499;28;19933;-74
2024/03/17 08:08:12;;;;;;;5.50;2.55;;;;;;;;;;10199351;28;20062;-74
2024/03/17 08:13:15;;;;;;;4.05;2.17;;;;;;;;;;10198296;28;20079;-74
2024/03/17 08:18:21;;;;;;;5.40;2.45;;;;;;;;;;10198487;28;20086;-76
2024/03/17 08:23:23;;;;;;;4.28;2.35;;;;;;;;;;10197505;28;20123;-75
2024/03/17 08:28:26;;;;;;;4.63;2.17;;;;;;;;;;10179787;28;20466;-75
2024/03/17 08:33:30;;;;;;;4.03;2.05;;;;;;;;;;10197935;28;20058;-76
2024/03/17 08:38:34;;;;;;;3.05;1.90;;;;;;;;;;10209423;28;20050;-76
2024/03/17 08:43:37;;;;;;;4.43;1.80;;;;;;;;;;10174238;28;20798;-77
2024/03/17 08:48:41;;;;;;;7.00;2.60;;;;;;;;;;10195473;28;20441;-77
2024/03/17 08:53:43;;;;;;;5.30;2.63;;;;;;;;;;10180338;28;20056;-77
2024/03/17 08:58:45;;;;;;;5.28;2.00;;;;;;;;;;10196169;28;20099;-74
2024/03/17 09:03:52;;;;;;;3.83;2.40;;;;;;;;;;10182918;28;20051;-75
2024/03/17 09:08:55;;;;;;;5.90;2.03;;;;;;;;;;10195432;28;20051;-73
2024/03/17 09:13:58;;;;;;;3.00;2.05;;;;;;;;;;10194314;28;20469;-75
2024/03/17 09:19:01;;;;;;;3.45;2.45;;;;;;;;;;10200466;28;20035;-75
2024/03/17 09:24:04;;;;;;;2.63;1.98;;;;;;;;;;10194674;28;20105;-76
2024/03/17 09:29:07;;;;;;;3.05;2.45;;;;;;;;;;10192452;28;20039;-76
2024/03/17 09:34:11;;;;;;;2.75;2.45;;;;;;;;;;10190251;28;20093;-77
2024/03/17 09:39:14;;;;;;;3.83;2.45;;;;;;;;;;10178668;28;20441;-77
2024/03/17 09:44:18;;;;;;;2.53;2.33;;;;;;;;;;10193742;28;20043;-77
2024/03/17 09:49:26;;;;;;;2.42;2.22;;;;;;;;;;10179764;28;20059;-75
2024/03/17 09:54:29;;;;;;;2.33;2.22;;;;;;;;;;10192929;28;20044;-78
2024/03/17 09:59:31;;;;;;;2.05;1.77;;;;;;;;;;10192886;28;20482;-77
2024/03/17 10:04:35;;;;;;;2.10;1.90;;;;;;;;;;10202764;28;20054;-77
2024/03/17 10:09:37;;;;;;;2.33;2.00;;;;;;;;;;10205939;28;20043;-76
2024/03/17 10:14:39;;;;;;;2.47;1.40;;;;;;;;;;10219717;28;20039;-76
2024/03/17 10:19:42;;;;;;;3.38;1.90;;;;;;;;;;10216279;28;20525;-77
2024/03/17 10:24:44;;;;;;;1.50;1.40;;;;;;;;;;10208351;28;20035;-76
2024/03/17 10:29:46;;;;;;;1.90;1.70;;;;;;;;;;10218876;28;20055;-76
2024/03/17 10:34:50;;;;;;;2.72;1.60;;;;;;;;;;10219987;28;20043;-77
2024/03/17 10:39:55;;;;;;;1.83;1.50;;;;;;;;;;10210603;28;20426;-76
2024/03/17 10:44:57;;;;;;;3.55;1.80;;;;;;;;;;10205435;28;20448;-77
2024/03/17 10:50:03;;;;;;;2.28;1.67;;;;;;;;;;10185728;28;20043;-76
2024/03/17 10:55:10;;;;;;;2.88;1.48;;;;;;;;;;10213458;28;20036;-77
2024/03/17 11:00:17;;;;;;;3.00;1.40;;;;;;;;;;10211837;28;20230;-77
2024/03/17 11:05:22;;;;;;;1.52;1.20;;;;;;;;;;10205722;28;20142;-76
2024/03/17 11:10:26;;;;;;;3.10;1.88;;;;;;;;;;10218843;28;20043;-77
2024/03/17 11:15:39;;;;;;;2.78;1.20;;;;;;;;;;10216000;28;20463;-76
2024/03/17 11:20:46;;;;;;;3.35;1.10;;;;;;;;;;10218645;28;20130;-77
2024/03/17 11:25:53;;;;;;;1.48;1.10;;;;;;;;;;10201361;28;20047;-77
2024/03/17 11:31:00;;;;;;;2.22;1.05;;;;;;;;;;10214192;28;20052;-76
2024/03/17 11:36:18;;;;;;;3.33;1.33;;;;;;;;;;10219454;28;20035;-74
2024/03/17 11:41:41;;;;;;;1.95;1.00;;;;;;;;;;10209069;28;20043;-76
2024/03/17 11:46:44;;;;;;;2.08;0.95;;;;;;;;;;10209160;28;20059;-77
2024/03/17 11:51:48;;;;;;;2.83;1.20;;;;;;;;;;10211579;28;20043;-76
2024/03/17 11:56:50;;;;;;;1.77;1.20;;;;;;;;;;10197344;28;20122;-76
2024/03/17 12:01:54;;;;;;;3.08;1.48;;;;;;;;;;10218431;28;20138;-78
2024/03/17 12:07:00;;;;;;;1.58;0.90;;;;;;;;;;10215179;28;20043;-76
2024/03/17 12:12:03;;;;;;;3.28;1.15;;;;;;;;;;10213416;28;20165;-76
2024/03/17 12:17:08;;;;;;;5.30;1.60;;;;;;;;;;10205600;28;20219;-77
2024/03/17 12:22:16;;;;;;;2.78;1.30;;;;;;;;;;10187762;28;20127;-77
2024/03/17 12:27:19;;;;;;;3.33;1.13;;;;;;;;;;10191279;28;20071;-76
2024/03/17 12:32:23;;;;;;;2.25;1.40;;;;;;;;;;10179122;28;20126;-75
2024/03/17 12:37:28;;;;;;;3.00;1.60;;;;;;;;;;10196867;28;20039;-76
2024/03/17 12:42:32;;;;;;;1.95;1.20;;;;;;;;;;10208485;28;20050;-76
2024/03/17 12:47:36;;;;;;;3.47;1.33;;;;;;;;;;10217276;28;20058;-77
2024/03/17 12:52:38;;;;;;;1.77;1.23;;;;;;;;;;10218468;28;20043;-77
2024/03/17 13:03:02;;;;;;;2.35;1.30;;;;;;;;;;10209195;28;20543;-76
2024/03/17 13:08:04;;;;;;;2.20;1.30;;;;;;;;;;10210295;28;20405;-77
2024/03/17 13:13:08;;;;;;;3.88;1.40;;;;;;;;;;10209805;28;20066;-78
2024/03/17 13:18:18;;;;;;;3.65;1.20;;;;;;;;;;10213600;28;20040;-76
2024/03/17 13:23:21;;;;;;;1.60;1.10;;;;;;;;;;10206701;28;20413;-77
2024/03/17 13:28:24;;;;;;;3.78;1.05;;;;;;;;;;10220377;28;20119;-75
2024/03/17 13:33:29;;;;;;;2.55;1.35;;;;;;;;;;10214796;28;20058;-76
2024/03/17 13:38:31;;;;;;;3.78;1.20;;;;;;;;;;10207207;28;20047;-76
2024/03/17 13:43:33;;;;;;;2.25;1.10;;;;;;;;;;10213333;28;20504;-76
2024/03/17 13:48:36;;;;;;;3.65;1.27;;;;;;;;;;10212671;28;20489;-76
2024/03/17 13:53:38;;;;;;;3.25;1.17;;;;;;;;;;10205202;28;20054;-76
2024/03/17 13:58:41;;;;;;;1.67;1.05;;;;;;;;;;10198641;28;20504;-75
2024/03/17 14:03:45;;;;;;;4.68;1.05;;;;;;;;;;10210570;28;20043;-75
2024/03/17 14:08:47;;;;;;;3.80;1.60;;;;;;;;;;10211001;28;20461;-75
2024/03/17 14:13:50;;;;;;;3.85;1.42;;;;;;;;;;10191274;28;20260;-75
2024/03/17 14:18:54;;;;;;;4.20;1.20;;;;;;;;;;10211342;28;20043;-77
2024/03/17 14:23:56;;;;;;;2.60;0.90;;;;;;;;;;10210389;28;20044;-78
2024/03/17 14:28:59;;;;;;;4.18;1.08;;;;;;;;;;10211430;28;20123;-78
2024/03/17 14:34:01;;;;;;;;;;;;;;;;;;10211904;28;20043;-78
2024/03/17 14:39:05;;;;;;;6.18;1.45;;;;;;;;;;10214411;28;19926;-75
2024/03/17 14:44:08;;;;;;;;;;;;;;;;;;10207711;28;20047;-76
2024/03/17 14:49:12;;;;;;;1.85;1.17;;;;;;;;;;10214710;28;19945;-76
2024/03/17 14:54:15;;;;;;;2.47;1.20;;;;;;;;;;10215134;28;20051;-76
2024/03/17 14:59:18;;;;;;;3.00;1.30;;;;;;;;;;10213274;28;20075;-76
2024/03/17 15:04:20;;;;;;;2.63;1.30;;;;;;;;;;10202301;28;20131;-75
2024/03/17 15:09:23;;;;;;;3.25;1.05;;;;;;;;;;10214467;28;20043;-75
2024/03/17 15:14:28;;;;;;;2.65;0.93;;;;;;;;;;10211325;28;20043;-74
2024/03/17 15:19:32;;;;;;;4.18;1.20;;;;;;;;;;10233048;28;20043;-75
2024/03/17 15:24:35;;;;;;;6.07;1.73;;;;;;;;;;10208009;28;20059;-75
2024/03/17 15:29:39;;;;;;;10.95;4.35;;;;;;;;;;10210201;28;20504;-75
2024/03/17 15:34:41;;;;;;;;;;;;;;;;;;10207065;28;20050;-74
2024/03/17 15:39:44;;;;;;;3.70;1.30;;;;;;;;;;10215925;28;19966;-76
2024/03/17 15:44:51;;;;;;;6.13;1.30;;;;;;;;;;10215984;28;20070;-75
2024/03/17 15:49:52;;;;;;;2.35;1.30;;;;;;;;;;10200668;28;20044;-77
2024/03/17 15:54:56;;;;;;;4.30;1.13;;;;;;;;;;10216214;28;20173;-75
2024/03/17 15:59:58;;;;;;;4.65;1.15;;;;;;;;;;10216456;28;20315;-75
2024/03/17 16:05:01;;;;;;;3.72;1.20;;;;;;;;;;10213559;28;20039;-75
2024/03/17 16:10:09;;;;;;;3.15;1.20;;;;;;;;;;10214784;28;20099;-78
2024/03/17 16:15:13;;;;;;;2.55;1.13;;;;;;;;;;10218648;28;20513;-74
2024/03/17 16:20:27;;;;;;;5.72;1.98;;;;;;;;;;10211363;28;20566;-76
2024/03/17 16:25:31;;;;;;;6.13;1.60;;;;;;;;;;10215770;28;20051;-77
2024/03/17 16:30:34;;;;;;;2.00;1.20;;;;;;;;;;10212966;28;20043;-77
2024/03/17 16:35:45;;;;;;;3.13;1.30;;;;;;;;;;10221242;28;20055;-77
2024/03/17 16:40:51;;;;;;;19.20;6.95;;;;;;;;;;10197672;28;20043;-75
2024/03/17 16:45:59;;;;;;;4.03;1.60;;;;;;;;;;10217680;28;20098;-76
2024/03/17 16:51:01;;;;;;;3.95;1.30;;;;;;;;;;10216424;28;20055;-74
2024/03/17 16:56:06;;;;;;;;;;;;;;;;;;10195854;28;20457;-76
2024/03/17 17:01:11;;;;;;;3.47;1.60;;;;;;;;;;10209789;28;19933;-75
2024/03/17 17:06:14;;;;;;;4.97;1.70;;;;;;;;;;10209421;28;20036;-74
2024/03/17 17:11:17;;;;;;;4.40;1.70;;;;;;;;;;10207237;28;20073;-75
2024/03/17 17:16:21;;;;;;;4.73;1.90;;;;;;;;;;10207834;28;20178;-75
2024/03/17 17:21:24;;;;;;;3.65;1.55;;;;;;;;;;10210999;28;20043;-74
2024/03/17 17:26:30;;;;;;;5.67;1.90;;;;;;;;;;10179584;28;20044;-75
2024/03/17 17:31:34;;;;;;;2.42;1.48;;;;;;;;;;10207893;28;20059;-75
2024/03/17 17:36:36;;;;;;;3.40;1.58;;;;;;;;;;10208504;28;20045;-76
2024/03/17 17:41:40;;;;;;;5.00;2.00;;;;;;;;;;10209472;28;20047;-76
2024/03/17 17:46:44;;;;;;;4.82;1.80;;;;;;;;;;10186606;28;20051;-74
2024/03/17 17:51:47;;;;;;;3.63;1.65;;;;;;;;;;10198738;28;20048;-76
2024/03/17 17:56:58;;;;;;;4.07;2.08;;;;;;;;;;10208315;28;20040;-75
2024/03/17 18:02:02;;;;;;;5.50;2.65;;;;;;;;;;10212865;28;20047;-78
2024/03/17 18:07:05;;;;;;;6.03;2.40;;;;;;;;;;10217423;28;20055;-80
2024/03/17 18:12:07;;;;;;;5.95;2.28;;;;;;;;;;10205110;28;20361;-76
2024/03/17 18:17:11;;;;;;;5.72;2.20;;;;;;;;;;10208122;28;20043;-76
2024/03/17 18:22:14;;;;;;;5.88;2.28;;;;;;;;;;10215254;28;20055;-74
2024/03/17 18:27:16;;;;;;;3.97;2.33;;;;;;;;;;10218108;28;20043;-75
2024/03/17 18:32:20;;;;;;;8.70;2.58;;;;;;;;;;10219845;28;20128;-76
2024/03/17 18:37:22;;;;;;;7.60;3.58;;;;;;;;;;10221872;28;20123;-76
2024/03/17 18:42:25;;;;;;;9.03;3.70;;;;;;;;;;10216116;28;20039;-76
2024/03/17 18:47:28;;;;;;;6.32;2.83;;;;;;;;;;10211599;28;20039;-75
2024/03/17 18:52:30;;;;;;;6.82;3.03;;;;;;;;;;10200713;28;20169;-76
2024/03/17 18:57:33;;;;;;;8.70;3.85;;;;;;;;;;10165890;28;20107;-77
2024/03/17 19:02:37;;;;;;;5.80;2.42;;;;;;;;;;10192208;28;20051;-77
2024/03/17 19:07:39;;;;;;;7.65;3.00;;;;;;;;;;10195769;28;20393;-76
2024/03/17 19:12:41;;;;;;;5.80;3.03;;;;;;;;;;10197989;28;20143;-76
2024/03/17 19:17:45;;;;;;;5.32;2.65;;;;;;;;;;10195964;28;20378;-75
2024/03/17 19:22:48;;;;;;;7.35;3.22;;;;;;;;;;10209583;28;20039;-77
2024/03/17 19:27:51;;;;;;;5.93;2.67;;;;;;;;;;10180527;28;20043;-77
2024/03/17 19:32:56;;;;;;;11.00;3.53;;;;;;;;;;10190479;28;20931;-74
2024/03/17 19:37:59;;;;;;;6.85;3.13;;;;;;;;;;10194564;28;20811;-75
2024/03/17 19:43:01;;;;;;;6.07;3.60;;;;;;;;;;10199411;28;20083;-74
2024/03/17 19:48:07;;;;;;;7.90;2.65;;;;;;;;;;10179742;28;20043;-76
2024/03/17 19:53:10;;;;;;;7.18;3.47;;;;;;;;;;10200937;28;20047;-75
2024/03/17 19:58:12;;;;;;;7.90;3.60;;;;;;;;;;10198342;28;20086;-76
2024/03/17 20:03:23;;;;;;;5.40;3.03;;;;;;;;;;10196159;28;20056;-75
2024/03/17 20:08:27;;;;;;;9.82;4.35;;;;;;;;;;10192739;28;20512;-76
2024/03/17 20:13:29;;;;;;;6.85;2.67;;;;;;;;;;10198767;28;20045;-74
2024/03/17 20:18:35;;;;;;;2.65;1.27;;;;;;;;;;10198530;28;20047;-75
2024/03/17 20:23:38;;;;;;;8.80;3.70;;;;;;;;;;10185624;28;20046;-74
2024/03/17 20:28:40;;;;;;;6.50;2.83;;;;;;;;;;10181687;28;20396;-74
2024/03/17 20:33:45;;;;;;;22.50;6.93;;;;;;;;;;10199473;28;20920;-75
2024/03/17 20:38:49;;;;;;;17.70;6.97;;;;;;;;;;10190628;28;20058;-75
2024/03/17 20:43:51;;;;;;;13.48;6.25;;;;;;;;;;10197177;28;20062;-75
2024/03/17 20:48:55;;;;;;;9.05;3.30;;;;;;;;;;10204728;28;20055;-76
2024/03/17 20:53:57;;;;;;;5.25;2.13;;;;;;;;;;10202100;28;20153;-76
2024/03/17 20:59:03;;;;;;;8.63;3.65;;;;;;;;;;10200988;28;20202;-76
2024/03/17 21:04:09;;;;;;;7.60;3.30;;;;;;;;;;10200863;28;20043;-76
2024/03/17 21:09:11;;;;;;;9.82;3.80;;;;;;;;;;10202624;28;20058;-75
2024/03/17 21:14:18;;;;;;;8.20;2.67;;;;;;;;;;10189252;28;20059;-77
2024/03/17 21:19:25;;;;;;;7.38;2.55;;;;;;;;;;10201845;28;20143;-76
2024/03/17 21:29:47;;;;;;;6.65;3.42;;;;;;;;;;10205994;28;20062;-75
2024/03/17 21:34:56;;;;;;;8.70;3.83;;;;;;;;;;10193375;28;20051;-78
2024/03/17 21:39:59;;;;;;;9.85;3.65;;;;;;;;;;10203340;28;20055;-76
2024/03/17 21:45:04;;;;;;;9.10;3.88;;;;;;;;;;10205129;28;20122;-77
2024/03/17 21:50:12;;;;;;;8.32;3.83;;;;;;;;;;10223446;28;20027;-77
2024/03/17 21:55:14;;;;;;;7.97;3.63;;;;;;;;;;10211005;28;20050;-77
2024/03/17 22:00:20;;;;;;;8.50;3.50;;;;;;;;;;10230195;28;20116;-77
2024/03/17 22:05:23;;;;;;;8.95;3.30;;;;;;;;;;10215980;28;20510;-77
2024/03/17 22:10:24;;;;;;;10.33;4.37;;;;;;;;;;10231575;28;20054;-75
2024/03/17 22:15:27;;;;;;;7.55;3.50;;;;;;;;;;10222648;28;20051;-78
2024/03/17 22:20:30;;;;;;;7.80;3.83;;;;;;;;;;10227957;28;20047;-77
2024/03/17 22:25:32;;;;;;;7.72;3.22;;;;;;;;;;10230556;28;20054;-78
2024/03/17 22:30:35;;;;;;;7.10;3.05;;;;;;;;;;10217806;28;20082;-77
2024/03/17 22:35:38;;;;;;;9.18;3.28;;;;;;;;;;10195025;28;20058;-76
2024/03/17 22:40:41;;;;;;;10.73;3.45;;;;;;;;;;10217683;28;20039;-78
2024/03/17 22:45:43;;;;;;;9.95;3.45;;;;;;;;;;10199029;28;20054;-78
2024/03/17 22:50:47;;;;;;;7.03;2.83;;;;;;;;;;10217547;28;20054;-78
2024/03/17 22:55:49;;;;;;;7.88;2.92;;;;;;;;;;10222835;28;20055;-77
2024/03/17 23:00:51;;;;;;;6.47;2.90;;;;;;;;;;10222020;28;20047;-77
2024/03/17 23:05:59;;;;;;;6.45;2.17;;;;;;;;;;10221308;28;20054;-78
2024/03/17 23:11:02;;;;;;;6.95;2.65;;;;;;;;;;10209263;28;20031;-76
2024/03/17 23:16:04;;;;;;;6.07;1.90;;;;;;;;;;10223012;28;20058;-78
2024/03/17 23:21:09;;;;;;;3.20;1.20;;;;;;;;;;10222095;28;20060;-78
2024/03/17 23:26:19;;;;;;;8.02;1.60;;;;;;;;;;10221200;28;20115;-77
2024/03/17 23:31:22;;;;;;;2.28;0.75;;;;;;;;;;10214449;28;20043;-78
2024/03/17 23:36:27;;;;;;;1.65;0.77;;;;;;;;;;10188789;28;20461;-78
2024/03/17 23:41:29;;;;;;;6.85;1.60;;;;;;;;;;10205067;28;20043;-79
2024/03/17 23:46:31;;;;;;;5.50;1.48;;;;;;;;;;10204937;28;20408;-77
2024/03/17 23:51:35;;;;;;;5.38;1.50;;;;;;;;;;10204685;28;20493;-78
2024/03/17 23:56:38;;;;;;;2.08;1.23;;;;;;;;;;10217848;28;20106;-77
